Pagrindinis puslapis
METAR-TAF:

METAR-TAF

Oro uostai :

Ha'il, Saudo Arabija

platuma: 27-26N, ilguma: 041-41E, Aukštis: 1015 m

Dabartinis oras

Ataskaita buvo paskelbta 1 valandą ir 9 minutes, ne 14:00 UTC
Vėjas 8 kt iš Šiaurės/Šiaurės Rytų
Temperatūra 38°C
Drėgmė 10%
Slėgis 1014 hPa
Matomumas 10 km arba daugiau
nėra debesų žemiau 1500 m ir nėra kamuolinių lietaus debesų

METAR: OEHL 211400Z 02008KT CAVOK 38/01 Q1014

Laikas: 18:09 (15:09 UTC)

Prognozė

Ataskaita buvo paskelbta 4 valandos ir 9 minutes, ne 11:00 UTC
Prognozė galioja nuo 21 metu 12 UTC su 22 metu 18 UTC
Vėjas 10 kt iš Rytų/Šiaurės Rytų
Matomumas 10 km arba daugiau
nėra debesų žemiau 1500 m ir nėra kamuolinių lietaus debesų
Tapsmas
nuo 21 metu 18 UTC su 21 metu 20 UTC
Vėjas 3 kt nuo kintamojo kryptimis

TAF: OEHL 211100Z 2112/2218 06010KT CAVOK BECMG 2118/2120 VRB03KT

Orai ataskaitas ir orų prognozės (METAR, TAF).

turimą stotys yra geltonos ir raudonos taškus žemėlapyje.

Perkelti pele per norėdami pamatyti stoties vardą.

Tada spustelėkite, norėdami matyti oro stebėjimo ir prognozės.

Norėdami pakeisti žemėlapį: spustelėkite ant žalios mygtukų su juodo kryžiaus žemyn,; žalią mygtuką su brūkšneliu, jei norite nutolinti; arba žalių rodyklių gretimoms žemėlapius.


METAR-TAF: